Allardt, Tennessee
Current Conditions -  °F | °C
As of 6:24 PM on Friday 31 Oct 2014 (Local Time) from KCSV Reporting Station
Light Snow Light Snow  
Wind Chill: -3°   Ceiling: 2000
Heat Index:   Visibility: 3mi
Dew Point: -1°   Wind: 14mph
Humidity: 82%   Direction: 320°NW
Pressure: 30.01"   Gusts: NA
Location:  36.38°N, 84.88°W
Report Text: KCSV 312324Z AUTO 32012KT 3SM -SN SCT012 BKN020 OVC046 02/M01 A3001 RMK AO2 P0000 T00171011
Loading
Personal Weather Stations






























Interactive Weather Map
Tropical Storm Tracking
New forecast layout! Learn more

10-Day Weather Forecast

Advertisements
Track Severe Weather on mobile